Time;durP1;ratioP1;P1;durP2;ratioP2;P2;SDS_P1;SDS_P2;PMS_P1;PMS_P2;Temp;Humidity;BMP_temperature;BMP_pressure;BME280_temperature;BME280_humidity;BME280_pressure;Samples;Min_cycle;Max_cycle;Signal;HPM_P1;HPM_P2
2022/08/12 00:43:30;;;;;;;3.53;2.13;;;18.00;99.90;;;;;;5076493;28;20725;-48
2022/08/12 00:48:42;;;;;;;3.17;1.60;;;17.90;99.90;;;;;;5058911;28;20215;-47
2022/08/12 00:51:09;;;;;;;7.03;2.00;;;17.90;99.90;;;;;;5059919;28;20224;-45
2022/08/12 00:53:37;;;;;;;2.93;1.70;;;17.90;99.90;;;;;;5072526;28;20194;-46
2022/08/12 00:56:06;;;;;;;3.47;1.97;;;17.80;99.90;;;;;;5066708;28;20226;-45
2022/08/12 00:58:34;;;;;;;2.53;2.17;;;17.80;99.90;;;;;;5063087;28;20226;-51
2022/08/12 01:01:04;;;;;;;3.67;1.90;;;17.80;99.90;;;;;;5066284;28;20217;-48
2022/08/12 01:11:49;;;;;;;5.73;1.83;;;17.80;99.90;;;;;;5063225;28;20209;-47
2022/08/12 01:14:18;;;;;;;3.20;1.70;;;17.80;99.90;;;;;;5060283;28;20743;-47
2022/08/12 01:16:46;;;;;;;1.87;1.43;;;17.80;99.90;;;;;;5070852;28;20195;-46
2022/08/12 01:19:14;;;;;;;2.67;1.63;;;17.70;99.90;;;;;;5061124;28;20233;-44
2022/08/12 01:22:15;;;;;;;2.57;2.03;;;17.70;99.90;;;;;;5062140;28;21764;-46
2022/08/12 01:24:54;;;;;;;3.03;1.50;;;17.70;99.90;;;;;;5066780;28;20296;-45
2022/08/12 01:27:22;;;;;;;2.53;1.80;;;17.60;99.90;;;;;;5065154;28;20199;-49
2022/08/12 01:29:52;;;;;;;2.93;1.70;;;17.60;99.90;;;;;;5063301;28;20210;-45
2022/08/12 01:32:22;;;;;;;1.80;1.70;;;17.60;99.90;;;;;;5065719;28;20563;-47
2022/08/12 01:34:57;;;;;;;1.53;1.43;;;17.60;99.90;;;;;;5059060;28;20214;-45
2022/08/12 01:37:26;;;;;;;3.20;1.70;;;17.60;99.90;;;;;;5058937;28;20306;-46
2022/08/12 01:39:56;;;;;;;2.30;1.60;;;17.50;99.90;;;;;;5072371;28;20237;-48
2022/08/12 01:42:27;;;;;;;3.33;2.00;;;17.50;99.90;;;;;;5063905;28;20611;-45
2022/08/12 01:44:56;;;;;;;4.60;1.90;;;17.60;99.90;;;;;;5076235;28;20210;-45
2022/08/12 01:47:33;;;;;;;5.43;1.90;;;17.50;99.90;;;;;;5083742;28;20289;-50
2022/08/12 01:50:15;;;;;;;1.57;1.30;;;17.50;99.90;;;;;;5075418;28;20288;-45
2022/08/12 01:52:55;;;;;;;2.70;1.83;;;17.50;99.90;;;;;;5059387;28;20207;-47
2022/08/12 01:55:25;;;;;;;2.77;1.97;;;17.50;99.90;;;;;;5070389;28;20197;-46
2022/08/12 01:58:03;;;;;;;2.53;1.83;;;17.40;99.90;;;;;;5063730;28;20920;-49
2022/08/12 02:00:43;;;;;;;3.47;1.63;;;17.40;99.90;;;;;;5062877;28;20199;-46
2022/08/12 02:03:21;;;;;;;4.47;1.93;;;17.30;99.90;;;;;;5064522;28;20819;-46
2022/08/12 02:11:35;;;;;;;1.57;1.47;;;17.30;99.90;;;;;;5066669;28;20207;-47
2022/08/12 02:14:12;;;;;;;1.80;1.50;;;17.30;99.90;;;;;;5063645;28;20206;-47
2022/08/12 02:17:04;;;;;;;1.77;1.67;;;17.20;99.90;;;;;;5061157;28;20195;-49
2022/08/12 02:19:53;;;;;;;1.80;1.70;;;17.20;99.90;;;;;;5077214;28;20760;-49
2022/08/12 02:22:27;;;;;;;1.73;1.60;;;17.20;99.90;;;;;;5068071;28;20213;-50
2022/08/12 02:25:01;;;;;;;1.70;1.60;;;17.00;99.90;;;;;;5069121;28;20245;-48
2022/08/12 02:27:37;;;;;;;2.30;1.60;;;17.00;99.90;;;;;;5062768;28;20716;-47
2022/08/12 02:30:07;;;;;;;1.53;1.43;;;17.00;99.90;;;;;;5064823;28;20695;-45
2022/08/12 02:32:38;;;;;;;2.03;1.83;;;16.90;99.90;;;;;;5061209;28;20695;-46
2022/08/12 02:35:09;;;;;;;2.50;1.70;;;16.90;99.90;;;;;;5063850;28;20229;-46
2022/08/12 02:37:38;;;;;;;3.73;1.60;;;16.90;99.90;;;;;;5055277;28;20202;-48
2022/08/12 02:40:07;;;;;;;2.53;1.73;;;16.90;99.90;;;;;;5054740;28;20215;-47
2022/08/12 02:42:36;;;;;;;2.23;1.77;;;16.90;99.90;;;;;;5066024;28;20218;-48
2022/08/12 02:45:06;;;;;;;2.73;2.03;;;16.80;99.90;;;;;;5063522;28;20543;-45
2022/08/12 02:47:37;;;;;;;1.80;1.70;;;16.80;99.90;;;;;;5061138;28;20199;-46
2022/08/12 02:50:06;;;;;;;4.77;1.70;;;16.80;99.90;;;;;;5064479;28;20214;-45
2022/08/12 02:52:34;;;;;;;3.43;1.80;;;16.80;99.90;;;;;;5061493;28;20203;-48
2022/08/12 02:55:11;;;;;;;1.77;1.67;;;16.80;99.90;;;;;;5060172;28;20221;-45
2022/08/12 02:57:43;;;;;;;2.27;1.60;;;16.70;99.90;;;;;;5063268;28;20276;-44
2022/08/12 03:00:12;;;;;;;2.03;1.50;;;16.70;99.90;;;;;;5077285;28;20257;-44
2022/08/12 03:02:43;;;;;;;1.70;1.60;;;16.70;99.90;;;;;;5079316;28;20198;-45
2022/08/12 03:05:13;;;;;;;2.33;2.00;;;16.70;99.90;;;;;;5082761;28;20222;-46
2022/08/12 03:07:45;;;;;;;5.40;2.03;;;16.60;99.90;;;;;;5071526;28;20263;-47
2022/08/12 03:10:13;;;;;;;1.60;1.43;;;16.60;99.90;;;;;;5063010;28;20237;-45
2022/08/12 03:12:44;;;;;;;1.77;1.40;;;16.60;99.90;;;;;;5066447;28;20228;-46
2022/08/12 03:15:16;;;;;;;3.13;1.63;;;16.50;99.90;;;;;;5063290;28;20195;-45
2022/08/12 03:17:50;;;;;;;2.70;2.00;;;16.50;99.90;;;;;;5060209;28;20198;-44
2022/08/12 03:20:20;;;;;;;1.93;1.70;;;16.50;99.90;;;;;;5066922;28;20233;-45
2022/08/12 03:22:49;;;;;;;2.70;2.50;;;16.50;99.90;;;;;;5066308;28;20201;-44
2022/08/12 03:25:23;;;;;;;2.93;1.80;;;16.50;99.90;;;;;;5070113;28;20221;-46
2022/08/12 03:27:55;;;;;;;2.03;1.93;;;16.50;99.90;;;;;;5064404;28;20263;-44
2022/08/12 03:30:24;;;;;;;3.07;1.80;;;16.40;99.90;;;;;;5063018;28;20614;-47
2022/08/12 03:32:52;;;;;;;3.77;2.00;;;16.40;99.90;;;;;;5061136;28;20198;-46
2022/08/12 03:35:25;;;;;;;2.27;1.90;;;16.40;99.90;;;;;;5062810;28;20290;-48
2022/08/12 03:37:55;;;;;;;2.97;2.17;;;16.30;99.90;;;;;;5074548;28;20275;-45
2022/08/12 04:02:40;;;;;;;2.27;2.03;;;16.30;99.90;;;;;;5059958;28;20209;-44
2022/08/12 04:05:11;;;;;;;2.50;2.30;;;16.20;99.90;;;;;;5067498;28;20218;-44
2022/08/12 04:07:39;;;;;;;2.70;1.87;;;16.20;99.90;;;;;;5068988;28;20223;-45
2022/08/12 04:10:07;;;;;;;2.60;2.03;;;16.20;99.90;;;;;;5066867;28;20250;-48
2022/08/12 04:15:21;;;;;;;2.73;1.90;;;16.20;99.90;;;;;;5067810;28;20968;-46
2022/08/12 04:17:49;;;;;;;1.63;1.53;;;16.20;99.90;;;;;;5076426;28;20226;-44
2022/08/12 04:20:18;;;;;;;2.40;2.20;;;16.20;99.90;;;;;;5066718;28;20538;-47
2022/08/12 04:22:45;;;;;;;2.87;2.40;;;16.20;99.90;;;;;;5074787;28;20213;-46
2022/08/12 04:25:13;;;;;;;2.30;2.07;;;16.10;99.90;;;;;;5061177;28;20221;-49
2022/08/12 04:27:44;;;;;;;4.27;1.87;;;16.10;99.90;;;;;;5061460;28;20198;-48
2022/08/12 04:30:11;;;;;;;4.50;2.27;;;16.10;99.90;;;;;;5064521;28;20212;-62
2022/08/12 04:32:40;;;;;;;2.67;2.00;;;16.10;99.90;;;;;;5079795;28;20285;-63
2022/08/12 04:35:08;;;;;;;4.00;2.30;;;16.10;99.90;;;;;;5067642;28;20182;-63
2022/08/12 04:37:35;;;;;;;5.10;1.83;;;16.10;99.90;;;;;;5067954;28;20203;-63
2022/08/12 04:40:03;;;;;;;2.20;2.00;;;16.10;99.90;;;;;;5061264;28;20221;-63
2022/08/12 04:42:31;;;;;;;3.67;2.10;;;16.10;99.90;;;;;;5071463;28;20206;-62
2022/08/12 04:44:58;;;;;;;3.30;1.93;;;16.00;99.90;;;;;;5056553;28;20224;-62
2022/08/12 04:47:25;;;;;;;3.40;2.00;;;16.10;99.90;;;;;;5065833;28;20289;-62
2022/08/12 04:49:53;;;;;;;1.83;1.63;;;16.10;99.90;;;;;;5064580;28;20270;-63
2022/08/12 04:52:21;;;;;;;2.97;2.03;;;16.10;99.90;;;;;;5085873;28;20190;-63
2022/08/12 04:54:48;;;;;;;3.40;2.20;;;16.00;99.90;;;;;;5068173;28;20277;-63
2022/08/12 04:57:16;;;;;;;2.23;2.00;;;16.10;99.90;;;;;;5061871;28;20202;-64
2022/08/12 04:59:42;;;;;;;4.10;2.37;;;16.10;99.90;;;;;;5060996;28;20230;-63
2022/08/12 05:02:09;;;;;;;3.60;2.20;;;16.10;99.90;;;;;;5067410;28;20201;-63
2022/08/12 05:04:38;;;;;;;3.47;2.50;;;16.10;99.90;;;;;;5065301;28;20218;-63
2022/08/12 05:07:08;;;;;;;4.17;1.93;;;16.10;99.90;;;;;;5065431;28;20209;-64
2022/08/12 05:09:35;;;;;;;4.20;2.20;;;16.20;99.90;;;;;;5066193;28;20752;-63
2022/08/12 05:12:02;;;;;;;4.30;2.23;;;16.20;99.90;;;;;;5065264;28;20267;-63
2022/08/12 05:14:29;;;;;;;5.53;2.40;;;16.20;99.90;;;;;;5064292;28;20206;-46
2022/08/12 05:16:59;;;;;;;2.57;2.20;;;16.20;99.90;;;;;;5074483;28;20204;-46
2022/08/12 05:19:26;;;;;;;5.43;2.40;;;16.30;99.90;;;;;;5080391;28;21028;-44
2022/08/12 05:21:53;;;;;;;6.70;2.63;;;16.30;99.90;;;;;;5072877;28;20285;-44
2022/08/12 05:24:21;;;;;;;4.93;2.53;;;16.30;99.90;;;;;;5067455;28;20202;-45
2022/08/12 05:26:48;;;;;;;4.03;2.30;;;16.40;99.90;;;;;;5065383;28;20667;-44
2022/08/12 05:29:15;;;;;;;3.47;2.20;;;16.40;99.90;;;;;;5049703;28;20246;-44
2022/08/12 05:31:42;;;;;;;2.73;2.30;;;16.40;99.90;;;;;;5086253;28;20198;-45
2022/08/12 05:34:13;;;;;;;4.70;2.07;;;16.50;99.90;;;;;;5066307;28;20191;-48
2022/08/12 05:36:41;;;;;;;5.33;2.67;;;16.60;99.90;;;;;;5077175;28;20229;-46
2022/08/12 05:39:06;;;;;;;6.10;2.80;;;16.60;99.90;;;;;;5067367;28;20799;-47
2022/08/12 05:41:36;;;;;;;5.20;2.47;;;16.60;99.90;;;;;;5067543;28;20202;-47
2022/08/12 05:44:06;;;;;;;4.57;2.27;;;16.60;99.90;;;;;;5048541;28;20217;-45
2022/08/12 05:46:34;;;;;;;5.93;2.33;;;16.80;99.90;;;;;;5071079;28;20197;-46
2022/08/12 05:49:02;;;;;;;6.23;2.30;;;16.90;99.90;;;;;;5065838;28;20346;-45
2022/08/12 05:51:31;;;;;;;4.20;2.43;;;16.90;99.90;;;;;;5073736;28;20975;-48
2022/08/12 05:53:59;;;;;;;5.07;2.20;;;17.30;99.90;;;;;;5068812;28;20437;-45
2022/08/12 05:56:49;;;;;;;2.10;1.60;;;17.30;99.90;;;;;;5064854;28;20228;-49
2022/08/12 05:59:17;;;;;;;7.33;2.20;;;17.30;99.90;;;;;;5055352;28;20222;-48
2022/08/12 06:01:45;;;;;;;3.93;2.00;;;17.30;99.90;;;;;;5067124;28;20197;-49
2022/08/12 06:04:13;;;;;;;4.13;2.13;;;17.30;99.90;;;;;;5082971;28;20202;-47
2022/08/12 06:06:41;;;;;;;4.33;2.37;;;17.40;99.90;;;;;;5070548;28;20202;-48
2022/08/12 06:09:10;;;;;;;3.77;2.00;;;17.50;99.90;;;;;;5074683;28;20694;-47
2022/08/12 06:11:40;;;;;;;5.00;2.20;;;17.60;99.90;;;;;;5061186;28;20940;-49
2022/08/12 06:14:09;;;;;;;3.67;2.03;;;17.70;99.90;;;;;;5073479;28;20213;-47
2022/08/12 06:16:36;;;;;;;3.83;1.90;;;17.70;99.90;;;;;;5063072;28;20205;-47
2022/08/12 06:19:02;;;;;;;2.10;1.90;;;17.70;99.90;;;;;;5079476;28;20733;-47
2022/08/12 06:21:29;;;;;;;3.20;1.97;;;17.80;99.90;;;;;;5073907;28;20471;-47
2022/08/12 06:23:57;;;;;;;2.33;1.70;;;17.90;99.90;;;;;;5075515;28;20205;-48
2022/08/12 06:26:24;;;;;;;2.53;2.20;;;18.00;99.90;;;;;;5070304;28;20228;-50
2022/08/12 06:28:51;;;;;;;2.70;2.30;;;18.10;99.90;;;;;;5068047;28;20687;-47
2022/08/12 06:31:19;;;;;;;3.03;2.20;;;18.20;99.90;;;;;;5054553;28;20589;-50
2022/08/12 06:33:49;;;;;;;2.30;2.00;;;18.30;99.90;;;;;;5068053;28;20295;-45
2022/08/12 06:36:18;;;;;;;3.73;2.27;;;18.40;99.90;;;;;;5059450;28;20214;-47
2022/08/12 06:38:46;;;;;;;2.43;2.23;;;18.40;99.90;;;;;;5062025;28;20236;-46
2022/08/12 06:43:58;;;;;;;1.80;1.70;;;18.50;99.90;;;;;;5064996;28;20754;-45
2022/08/12 06:46:28;;;;;;;4.03;2.40;;;18.70;99.90;;;;;;5054041;28;20705;-49
2022/08/12 06:48:57;;;;;;;2.10;1.60;;;18.80;99.90;;;;;;5065539;28;20824;-48
2022/08/12 06:51:24;;;;;;;3.07;2.20;;;18.90;99.90;;;;;;5060547;28;20224;-47
2022/08/12 06:53:52;;;;;;;4.70;2.50;;;19.00;99.90;;;;;;5071920;28;20190;-46
2022/08/12 06:56:19;;;;;;;8.40;2.40;;;19.00;99.90;;;;;;5066796;28;20198;-46
2022/08/12 06:58:46;;;;;;;3.97;1.80;;;19.20;99.90;;;;;;5062736;28;20237;-47
2022/08/12 07:01:13;;;;;;;5.23;2.30;;;19.20;99.90;;;;;;5065510;28;20205;-51
2022/08/12 07:03:42;;;;;;;3.40;1.83;;;19.40;99.90;;;;;;5063377;28;20367;-46
2022/08/12 07:06:10;;;;;;;2.70;1.93;;;19.50;99.90;;;;;;5063128;28;20219;-47
2022/08/12 07:08:37;;;;;;;3.73;1.90;;;19.50;99.90;;;;;;5064238;28;20211;-48
2022/08/12 07:11:08;;;;;;;2.30;2.10;;;19.60;99.90;;;;;;5068207;28;20674;-50
2022/08/12 07:13:37;;;;;;;2.23;1.97;;;19.70;99.90;;;;;;5055510;28;20206;-47
2022/08/12 07:16:05;;;;;;;2.50;2.30;;;19.80;99.90;;;;;;5065593;28;20195;-46
2022/08/12 07:18:33;;;;;;;4.87;2.20;;;19.90;99.90;;;;;;5050023;28;20280;-49
2022/08/12 07:21:02;;;;;;;2.37;2.10;;;20.10;99.90;;;;;;5048378;28;20217;-48
2022/08/12 07:23:32;;;;;;;2.57;2.00;;;20.20;99.90;;;;;;5067032;28;20194;-49
2022/08/12 07:26:00;;;;;;;5.00;1.90;;;20.20;99.90;;;;;;5058862;28;20232;-47
2022/08/12 07:28:32;;;;;;;3.63;2.13;;;20.30;99.90;;;;;;5068815;28;20244;-48
2022/08/12 07:30:59;;;;;;;2.03;1.83;;;20.40;99.90;;;;;;5070666;28;20197;-47
2022/08/12 07:33:28;;;;;;;3.30;2.57;;;20.50;99.90;;;;;;5053791;28;20225;-47
2022/08/12 07:35:57;;;;;;;3.70;2.27;;;20.60;99.90;;;;;;5063775;28;20202;-49
2022/08/12 07:38:29;;;;;;;6.43;2.10;;;20.80;99.90;;;;;;5060800;28;20206;-45
2022/08/12 07:41:00;;;;;;;2.57;1.90;;;20.80;99.90;;;;;;5054814;28;21134;-48
2022/08/12 07:43:28;;;;;;;3.17;2.13;;;20.90;99.90;;;;;;5060028;28;20209;-49
2022/08/12 07:45:56;;;;;;;5.50;2.00;;;21.00;99.90;;;;;;5065160;28;20225;-48
2022/08/12 07:48:24;;;;;;;4.87;1.83;;;21.00;99.90;;;;;;5056524;28;20227;-45
2022/08/12 07:50:52;;;;;;;2.30;2.10;;;21.10;99.90;;;;;;5071055;28;20192;-45
2022/08/12 07:53:19;;;;;;;2.10;1.90;;;21.20;99.90;;;;;;5063814;28;20205;-45
2022/08/12 07:55:47;;;;;;;5.00;1.93;;;21.40;99.90;;;;;;5064547;28;20701;-47
2022/08/12 07:58:14;;;;;;;2.53;2.33;;;21.40;99.90;;;;;;5060555;28;20198;-49
2022/08/12 08:00:42;;;;;;;2.77;1.97;;;21.60;99.90;;;;;;5073317;28;20353;-49
2022/08/12 08:03:12;;;;;;;3.93;1.80;;;21.70;99.90;;;;;;5065324;28;20202;-47
2022/08/12 08:05:45;;;;;;;2.63;2.27;;;21.80;99.90;;;;;;5059971;28;20292;-46
2022/08/12 08:08:13;;;;;;;2.80;2.60;;;21.90;99.90;;;;;;5059483;28;20257;-46
2022/08/12 08:10:41;;;;;;;5.73;2.40;;;22.00;99.90;;;;;;5066069;28;20466;-47
2022/08/12 08:13:10;;;;;;;7.13;2.23;;;22.10;99.90;;;;;;5065950;28;20225;-46
2022/08/12 08:15:38;;;;;;;2.80;2.20;;;22.20;99.90;;;;;;5061821;28;20929;-47
2022/08/12 08:18:06;;;;;;;2.73;1.97;;;22.30;99.90;;;;;;5070969;28;20288;-46
2022/08/12 08:20:36;;;;;;;2.50;2.30;;;22.30;99.90;;;;;;5057884;28;20204;-48
2022/08/12 08:23:08;;;;;;;3.47;2.23;;;22.50;99.90;;;;;;5070618;28;20202;-48
2022/08/12 08:25:37;;;;;;;8.03;2.30;;;22.60;99.90;;;;;;5060402;28;20286;-48
2022/08/12 08:28:07;;;;;;;3.00;1.83;;;22.70;99.90;;;;;;5067161;28;20210;-47
2022/08/12 08:30:38;;;;;;;4.57;2.10;;;22.80;99.90;;;;;;5072416;28;20193;-48
2022/08/12 08:33:08;;;;;;;4.60;2.30;;;23.00;99.90;;;;;;5073416;28;20558;-46
2022/08/12 08:35:34;;;;;;;2.93;2.13;;;23.10;99.90;;;;;;5048744;28;20203;-46
2022/08/12 08:38:07;;;;;;;2.23;2.00;;;23.20;99.70;;;;;;5071593;28;20214;-47
2022/08/12 08:43:20;;;;;;;2.47;1.80;;;23.40;99.00;;;;;;5063342;28;20229;-47
2022/08/12 08:45:48;;;;;;;2.80;2.03;;;23.50;98.60;;;;;;5067900;28;20214;-47
2022/08/12 08:48:15;;;;;;;4.57;1.93;;;23.60;98.40;;;;;;5066776;28;20206;-50
2022/08/12 08:50:43;;;;;;;4.80;2.30;;;23.70;97.90;;;;;;5058642;28;20210;-50
2022/08/12 08:53:11;;;;;;;5.73;1.70;;;23.80;98.00;;;;;;5079812;28;20620;-49
2022/08/12 08:55:39;;;;;;;2.10;2.00;;;24.00;97.90;;;;;;5066831;28;20936;-47
2022/08/12 08:58:07;;;;;;;6.78;2.10;;;24.10;97.60;;;;;;5064860;28;20190;-50
2022/08/12 09:00:37;;;;;;;2.83;2.07;;;24.10;97.10;;;;;;5074692;28;20206;-49
2022/08/12 09:03:05;;;;;;;5.43;1.83;;;24.30;96.50;;;;;;5068936;28;20228;-49
2022/08/12 09:05:32;;;;;;;2.55;1.80;;;24.40;96.40;;;;;;5054128;28;20643;-51
2022/08/12 09:08:02;;;;;;;2.60;2.20;;;24.60;95.50;;;;;;5071098;28;20202;-49
2022/08/12 09:10:29;;;;;;;2.85;1.77;;;24.70;95.20;;;;;;5067080;28;20214;-48
2022/08/12 09:15:41;;;;;;;1.98;1.75;;;25.00;94.40;;;;;;5068910;28;20201;-47
2022/08/12 09:18:10;;;;;;;2.65;1.90;;;25.00;93.40;;;;;;5073217;28;20277;-49
2022/08/12 09:20:39;;;;;;;3.40;2.03;;;25.10;92.60;;;;;;5060319;28;20990;-49
2022/08/12 09:23:09;;;;;;;4.07;2.38;;;25.10;92.20;;;;;;5072062;28;20206;-48
2022/08/12 09:25:37;;;;;;;6.28;1.70;;;25.30;91.40;;;;;;5072127;28;20206;-49
2022/08/12 09:28:05;;;;;;;3.58;2.05;;;25.50;91.40;;;;;;5065081;28;20199;-52
2022/08/12 09:30:32;;;;;;;2.20;2.00;;;25.60;91.40;;;;;;5067320;28;20217;-50
2022/08/12 09:32:58;;;;;;;4.43;1.88;;;25.70;90.60;;;;;;5065186;28;20218;-46
2022/08/12 09:35:30;;;;;;;4.18;1.88;;;25.80;89.50;;;;;;5063388;28;20316;-47
2022/08/12 09:37:57;;;;;;;3.03;2.03;;;26.00;89.40;;;;;;5057910;28;20206;-50
2022/08/12 09:40:24;;;;;;;2.60;1.75;;;26.00;88.10;;;;;;5069971;28;20956;-46
2022/08/12 09:45:36;;;;;;;1.73;1.63;;;26.00;87.50;;;;;;5076455;28;20221;-48
2022/08/12 09:48:06;;;;;;;2.92;2.17;;;26.10;87.40;;;;;;5058862;28;20679;-49
2022/08/12 09:50:35;;;;;;;2.20;2.00;;;26.20;86.00;;;;;;5059345;28;20237;-47
2022/08/12 09:53:07;;;;;;;3.10;1.98;;;26.20;85.70;;;;;;5059465;28;20210;-49
2022/08/12 09:55:34;;;;;;;2.83;1.63;;;26.30;84.00;;;;;;5072802;28;21019;-51
2022/08/12 09:58:02;;;;;;;3.75;1.73;;;26.50;83.40;;;;;;5065979;28;20203;-49
2022/08/12 10:00:28;;;;;;;2.17;1.98;;;26.70;81.00;;;;;;5065952;28;20218;-52
2022/08/12 10:03:00;;;;;;;1.65;1.55;;;26.70;80.70;;;;;;5065511;28;20220;-47
2022/08/12 10:05:32;;;;;;;2.97;1.60;;;26.70;79.40;;;;;;5059119;28;20199;-47
2022/08/12 10:08:01;;;;;;;5.57;1.88;;;26.70;79.50;;;;;;5054065;28;20622;-50
2022/08/12 10:10:27;;;;;;;2.03;1.88;;;26.80;79.50;;;;;;5069634;28;20218;-47
2022/08/12 10:15:45;;;;;;;1.77;1.60;;;27.10;76.30;;;;;;5072690;28;20216;-53
2022/08/12 10:18:12;;;;;;;1.83;1.73;;;27.20;75.40;;;;;;5070878;28;20198;-45
2022/08/12 10:20:39;;;;;;;2.92;1.73;;;27.10;72.40;;;;;;5067833;28;20205;-46
2022/08/12 10:23:08;;;;;;;1.98;1.80;;;27.20;70.70;;;;;;5060236;28;20202;-48
2022/08/12 10:31:05;;;;;;;1.98;1.42;;;27.40;68.80;;;;;;5062718;28;20629;-51
2022/08/12 10:33:32;;;;;;;3.47;1.70;;;27.50;67.70;;;;;;5069771;28;20190;-48
2022/08/12 10:36:00;;;;;;;3.58;1.67;;;27.60;67.50;;;;;;5061943;28;20194;-49
2022/08/12 10:38:29;;;;;;;1.60;1.50;;;27.60;66.30;;;;;;5051695;28;23407;-48
2022/08/12 10:43:43;;;;;;;2.85;1.50;;;27.70;63.30;;;;;;5063947;28;20338;-49
2022/08/12 10:46:15;;;;;;;1.70;1.60;;;27.80;63.00;;;;;;5066791;28;20328;-48
2022/08/12 10:48:42;;;;;;;3.08;1.33;;;28.00;61.00;;;;;;5065624;28;20219;-47
2022/08/12 10:51:10;;;;;;;2.13;1.55;;;28.10;60.50;;;;;;5072014;28;20202;-51
2022/08/12 10:53:38;;;;;;;1.70;1.42;;;28.30;59.90;;;;;;5055256;28;20237;-48
2022/08/12 10:56:06;;;;;;;2.63;1.83;;;28.20;59.50;;;;;;5065928;28;20327;-50
2022/08/12 10:58:35;;;;;;;3.28;1.38;;;28.20;59.90;;;;;;5062360;28;20223;-51
2022/08/12 11:01:04;;;;;;;1.88;1.75;;;28.30;59.50;;;;;;5066045;28;20288;-51
2022/08/12 11:03:33;;;;;;;2.22;1.55;;;28.40;59.50;;;;;;5066801;28;20666;-48
2022/08/12 11:06:01;;;;;;;3.25;1.80;;;28.50;59.30;;;;;;5072398;28;20279;-47
2022/08/12 11:08:27;;;;;;;2.80;1.50;;;28.50;58.70;;;;;;5054499;28;20229;-48
2022/08/12 11:10:55;;;;;;;2.45;1.95;;;28.60;58.90;;;;;;5055891;28;20578;-52
2022/08/12 11:13:23;;;;;;;2.13;1.80;;;28.70;58.20;;;;;;5053868;28;20198;-47
2022/08/12 11:15:51;;;;;;;2.97;1.70;;;28.80;57.20;;;;;;5069899;28;20204;-51
2022/08/12 11:18:18;;;;;;;2.13;1.70;;;28.90;57.10;;;;;;5066400;28;20202;-50
2022/08/12 11:20:46;;;;;;;1.67;1.58;;;28.80;56.60;;;;;;5068580;28;20598;-48
2022/08/12 11:23:13;;;;;;;1.67;1.35;;;28.70;56.50;;;;;;5065774;28;20195;-47
2022/08/12 11:25:42;;;;;;;2.10;1.88;;;28.70;56.30;;;;;;5057635;28;20219;-52
2022/08/12 11:28:10;;;;;;;3.22;1.70;;;28.70;56.10;;;;;;5054798;28;20191;-51
2022/08/12 11:30:37;;;;;;;2.13;1.77;;;28.70;56.00;;;;;;5060777;28;20202;-46
2022/08/12 11:33:04;;;;;;;4.95;1.88;;;28.70;56.10;;;;;;5064175;28;20229;-48
2022/08/12 11:35:31;;;;;;;1.88;1.70;;;28.80;55.50;;;;;;5072178;28;20194;-47
2022/08/12 11:38:00;;;;;;;3.58;1.90;;;28.90;55.00;;;;;;5066752;28;20193;-53
2022/08/12 11:40:27;;;;;;;3.58;1.70;;;28.90;54.70;;;;;;5059074;28;20221;-49
2022/08/12 11:42:54;;;;;;;3.22;2.03;;;28.80;55.30;;;;;;5059424;28;20202;-50
2022/08/12 11:45:22;;;;;;;4.35;1.60;;;29.00;54.40;;;;;;5052158;28;20939;-47
2022/08/12 11:47:49;;;;;;;2.63;1.80;;;29.10;53.50;;;;;;5073177;28;20271;-49
2022/08/12 11:50:16;;;;;;;1.70;1.60;;;29.30;53.50;;;;;;5067939;28;20210;-49
2022/08/12 11:52:43;;;;;;;2.13;1.88;;;29.20;53.30;;;;;;5069062;28;20233;-51
2022/08/12 11:55:10;;;;;;;2.35;1.90;;;29.30;53.60;;;;;;5071734;28;20210;-46
2022/08/12 11:57:47;;;;;;;3.53;1.77;;;29.40;53.60;;;;;;5050156;28;20198;-49
2022/08/12 12:00:15;;;;;;;5.93;2.10;;;29.50;52.50;;;;;;5067836;28;20737;-51
2022/08/12 12:02:43;;;;;;;2.65;1.80;;;29.70;52.00;;;;;;5062592;28;20205;-47
2022/08/12 12:05:10;;;;;;;2.38;1.90;;;29.80;51.10;;;;;;5068090;28;20200;-52
2022/08/12 12:07:39;;;;;;;7.72;2.00;;;29.90;49.80;;;;;;5065657;28;20266;-48
2022/08/12 12:10:06;;;;;;;3.08;1.70;;;30.00;49.70;;;;;;5067868;28;20275;-52
2022/08/12 12:12:34;;;;;;;2.55;1.60;;;30.00;49.60;;;;;;5047643;28;20297;-49
2022/08/12 12:15:02;;;;;;;3.28;1.58;;;30.10;48.80;;;;;;5047681;28;20202;-48
2022/08/12 12:17:30;;;;;;;1.77;1.67;;;30.00;48.60;;;;;;5065895;28;20205;-47
2022/08/12 12:19:58;;;;;;;2.53;1.40;;;29.90;48.60;;;;;;5065189;28;20226;-46
2022/08/12 12:22:26;;;;;;;6.97;1.95;;;29.80;48.30;;;;;;5068531;28;20206;-48
2022/08/12 12:24:53;;;;;;;2.30;1.83;;;29.80;48.10;;;;;;5064755;28;20267;-51
2022/08/12 12:27:20;;;;;;;2.83;1.45;;;29.70;49.20;;;;;;5055928;28;20217;-47
2022/08/12 12:29:47;;;;;;;1.80;1.70;;;29.80;48.80;;;;;;5077598;28;20226;-51
2022/08/12 12:32:14;;;;;;;5.40;1.58;;;29.90;48.60;;;;;;5067975;28;20237;-47
2022/08/12 12:34:41;;;;;;;1.83;1.73;;;30.10;48.60;;;;;;5067075;28;20203;-50
2022/08/12 12:37:12;;;;;;;1.38;1.27;;;30.20;48.40;;;;;;5057923;28;20190;-46
2022/08/12 12:39:39;;;;;;;3.50;1.98;;;30.30;47.20;;;;;;5076155;28;20232;-47
2022/08/12 12:42:06;;;;;;;3.40;1.75;;;30.40;47.20;;;;;;5066675;28;20214;-47
2022/08/12 12:44:33;;;;;;;2.70;1.55;;;30.40;46.60;;;;;;5068533;28;20199;-48
2022/08/12 12:46:59;;;;;;;1.80;1.63;;;30.40;46.40;;;;;;5062996;28;20215;-51
2022/08/12 12:49:26;;;;;;;2.50;1.70;;;30.30;46.40;;;;;;5067788;28;20230;-46
2022/08/12 12:51:53;;;;;;;3.75;1.75;;;30.40;46.80;;;;;;5055273;28;20202;-50
2022/08/12 12:54:22;;;;;;;2.67;1.65;;;30.60;46.10;;;;;;5072112;28;20202;-49
2022/08/12 12:56:51;;;;;;;2.85;1.60;;;30.80;45.60;;;;;;5071400;28;20678;-51
2022/08/12 12:59:20;;;;;;;8.05;1.95;;;30.90;44.80;;;;;;5066053;28;20233;-50
2022/08/12 13:01:47;;;;;;;4.40;1.63;;;31.10;44.70;;;;;;5065970;28;20203;-50
2022/08/12 13:04:13;;;;;;;2.15;1.50;;;31.10;44.00;;;;;;5072646;28;20320;-50
2022/08/12 13:06:41;;;;;;;1.70;1.60;;;31.00;43.60;;;;;;5066918;28;20257;-48
2022/08/12 13:09:11;;;;;;;1.50;1.40;;;31.00;44.60;;;;;;5067183;28;20967;-46
2022/08/12 13:11:39;;;;;;;2.38;1.55;;;31.30;44.80;;;;;;5067792;28;20209;-49
2022/08/12 13:14:07;;;;;;;3.25;1.50;;;31.50;44.20;;;;;;5044428;28;20289;-47
2022/08/12 13:16:34;;;;;;;5.18;1.70;;;31.80;43.40;;;;;;5069859;28;20222;-49
2022/08/12 13:19:01;;;;;;;2.30;1.45;;;32.30;42.60;;;;;;5067701;28;20227;-45
2022/08/12 13:21:29;;;;;;;1.42;1.33;;;32.50;41.70;;;;;;5075251;28;20213;-45
2022/08/12 13:23:56;;;;;;;3.75;1.40;;;32.60;41.60;;;;;;5061344;28;20226;-46
2022/08/12 13:26:23;;;;;;;2.65;1.40;;;33.00;41.30;;;;;;5069283;28;20243;-50
2022/08/12 13:28:52;;;;;;;2.05;1.50;;;33.30;40.50;;;;;;5061103;28;20226;-48
2022/08/12 13:31:20;;;;;;;2.25;1.38;;;33.40;40.80;;;;;;5059267;28;20584;-49
2022/08/12 13:33:50;;;;;;;2.65;2.00;;;33.60;40.50;;;;;;5074051;28;20447;-50
2022/08/12 13:36:19;;;;;;;2.00;1.90;;;33.60;40.80;;;;;;5066783;28;20260;-50
2022/08/12 13:38:49;;;;;;;1.80;1.70;;;33.60;39.90;;;;;;5072256;28;20335;-45
2022/08/12 13:41:31;;;;;;;2.47;1.73;;;33.70;39.80;;;;;;5068154;28;20198;-49
2022/08/12 13:44:01;;;;;;;1.52;1.30;;;;;;;;;;5063054;28;20206;-52
2022/08/12 13:46:28;;;;;;;3.60;1.40;;;34.00;38.20;;;;;;5052899;28;20929;-49
2022/08/12 13:48:55;;;;;;;3.28;1.60;;;34.40;38.60;;;;;;5071770;28;20211;-52
2022/08/12 13:51:22;;;;;;;2.33;1.52;;;34.70;38.30;;;;;;5072308;28;20244;-52
2022/08/12 13:53:50;;;;;;;2.10;1.60;;;34.90;38.00;;;;;;5066699;28;20199;-52
2022/08/12 13:56:17;;;;;;;1.73;1.30;;;34.90;38.00;;;;;;5072642;28;20194;-49
2022/08/12 13:58:50;;;;;;;1.88;1.63;;;34.90;37.50;;;;;;5065731;28;21280;-48
2022/08/12 14:01:20;;;;;;;2.90;1.70;;;35.00;37.20;;;;;;5054648;28;20201;-52
2022/08/12 14:03:48;;;;;;;4.45;1.52;;;35.30;37.70;;;;;;5070457;28;20191;-50
2022/08/12 14:06:15;;;;;;;4.15;1.70;;;35.40;36.40;;;;;;5069857;28;20202;-50
2022/08/12 14:08:42;;;;;;;2.80;1.50;;;35.40;35.90;;;;;;5074793;28;20220;-50
2022/08/12 14:11:09;;;;;;;1.60;1.50;;;35.70;35.50;;;;;;5071396;28;20195;-47
2022/08/12 14:13:38;;;;;;;2.17;1.48;;;35.60;35.00;;;;;;5063583;28;20292;-46
2022/08/12 14:16:09;;;;;;;1.52;1.20;;;35.50;34.90;;;;;;5067779;28;20198;-48
2022/08/12 14:18:38;;;;;;;2.35;1.70;;;35.70;35.00;;;;;;5061620;28;20221;-46
2022/08/12 14:21:08;;;;;;;2.80;1.40;;;;;;;;;;5066871;28;20261;-48
2022/08/12 14:23:40;;;;;;;2.90;1.48;;;36.20;34.90;;;;;;5067580;28;20186;-46
2022/08/12 14:26:09;;;;;;;2.65;1.50;;;36.40;34.60;;;;;;5064979;28;20252;-48
2022/08/12 14:28:37;;;;;;;2.78;1.55;;;36.40;34.70;;;;;;5070617;28;20210;-49
2022/08/12 14:31:06;;;;;;;1.40;1.30;;;36.80;34.00;;;;;;5063255;28;20195;-48
2022/08/12 14:33:35;;;;;;;3.20;1.40;;;36.80;34.90;;;;;;5053583;28;20218;-48
2022/08/12 14:36:04;;;;;;;3.17;1.85;;;36.80;34.80;;;;;;5077685;28;20205;-51
2022/08/12 14:38:38;;;;;;;3.47;1.60;;;36.70;33.80;;;;;;5064265;28;20848;-47
2022/08/12 14:41:07;;;;;;;4.65;1.55;;;36.60;33.70;;;;;;5070743;28;20214;-51
2022/08/12 14:43:36;;;;;;;1.73;1.60;;;36.90;33.50;;;;;;5067518;28;20957;-47